sensor_id;sensor_type;location;lat;lon;timestamp;pressure;altitude;pressure_sealevel;temperature;humidity
21706;BME280;11014;53.076;18.208;2023-07-13T00:00:48;100852.94;;;21.34;62.57
21706;BME280;11014;53.076;18.208;2023-07-13T00:03:37;100852.97;;;21.28;62.37
21706;BME280;11014;53.076;18.208;2023-07-13T00:06:05;100842.66;;;21.25;62.49
21706;BME280;11014;53.076;18.208;2023-07-13T00:08:34;100840.56;;;21.17;62.41
21706;BME280;11014;53.076;18.208;2023-07-13T00:11:03;100844.44;;;21.16;62.56
21706;BME280;11014;53.076;18.208;2023-07-13T00:13:32;100847.44;;;21.15;62.51
21706;BME280;11014;53.076;18.208;2023-07-13T00:16:02;100859.78;;;21.12;63.04
21706;BME280;11014;53.076;18.208;2023-07-13T00:18:30;100849.78;;;21.03;64.36
21706;BME280;11014;53.076;18.208;2023-07-13T00:20:59;100858.63;;;20.95;63.71
21706;BME280;11014;53.076;18.208;2023-07-13T00:23:34;100864.44;;;20.88;64.24
21706;BME280;11014;53.076;18.208;2023-07-13T00:26:03;100866.44;;;20.83;64.43
21706;BME280;11014;53.076;18.208;2023-07-13T00:28:33;100861.53;;;20.80;64.22
21706;BME280;11014;53.076;18.208;2023-07-13T00:31:02;100870.28;;;20.82;64.23
21706;BME280;11014;53.076;18.208;2023-07-13T00:33:31;100865.03;;;20.85;63.81
21706;BME280;11014;53.076;18.208;2023-07-13T00:36:02;100876.19;;;20.89;63.97
21706;BME280;11014;53.076;18.208;2023-07-13T00:38:31;100880.59;;;20.85;64.58
21706;BME280;11014;53.076;18.208;2023-07-13T00:41:00;100881.53;;;20.75;64.97
21706;BME280;11014;53.076;18.208;2023-07-13T00:43:29;100883.28;;;20.66;65.51
21706;BME280;11014;53.076;18.208;2023-07-13T00:48:31;100894.91;;;20.53;65.42
21706;BME280;11014;53.076;18.208;2023-07-13T00:51:01;100897.09;;;20.51;65.32
21706;BME280;11014;53.076;18.208;2023-07-13T00:53:31;100889.81;;;20.46;65.33
21706;BME280;11014;53.076;18.208;2023-07-13T00:56:01;100902.06;;;20.44;65.53
21706;BME280;11014;53.076;18.208;2023-07-13T00:58:31;100906.19;;;20.41;65.31
21706;BME280;11014;53.076;18.208;2023-07-13T01:01:01;100907.91;;;20.37;65.34
21706;BME280;11014;53.076;18.208;2023-07-13T01:03:29;100914.19;;;20.33;65.55
21706;BME280;11014;53.076;18.208;2023-07-13T01:06:01;100935.50;;;20.31;66.03
21706;BME280;11014;53.076;18.208;2023-07-13T01:08:29;100917.78;;;20.28;65.92
21706;BME280;11014;53.076;18.208;2023-07-13T01:11:01;100915.88;;;20.29;65.60
21706;BME280;11014;53.076;18.208;2023-07-13T01:13:29;100915.88;;;20.29;65.59
21706;BME280;11014;53.076;18.208;2023-07-13T01:16:01;100913.69;;;20.31;65.59
21706;BME280;11014;53.076;18.208;2023-07-13T01:18:32;100903.00;;;20.34;65.64
21706;BME280;11014;53.076;18.208;2023-07-13T01:21:02;100894.78;;;20.39;65.27
21706;BME280;11014;53.076;18.208;2023-07-13T01:23:32;100891.47;;;20.42;65.20
21706;BME280;11014;53.076;18.208;2023-07-13T01:26:01;100884.09;;;20.43;64.98
21706;BME280;11014;53.076;18.208;2023-07-13T01:28:30;100889.25;;;20.44;65.38
21706;BME280;11014;53.076;18.208;2023-07-13T01:31:01;100890.41;;;20.38;65.47
21706;BME280;11014;53.076;18.208;2023-07-13T01:33:29;100894.81;;;20.34;65.69
21706;BME280;11014;53.076;18.208;2023-07-13T01:35:58;100897.38;;;20.26;65.58
21706;BME280;11014;53.076;18.208;2023-07-13T01:38:27;100900.94;;;20.21;65.93
21706;BME280;11014;53.076;18.208;2023-07-13T01:40:56;100904.22;;;20.18;65.83
21706;BME280;11014;53.076;18.208;2023-07-13T01:43:27;100896.03;;;20.18;65.62
21706;BME280;11014;53.076;18.208;2023-07-13T01:45:55;100909.38;;;20.20;65.85
21706;BME280;11014;53.076;18.208;2023-07-13T01:48:34;100915.13;;;20.18;65.50
21706;BME280;11014;53.076;18.208;2023-07-13T01:51:02;100919.78;;;20.18;65.55
21706;BME280;11014;53.076;18.208;2023-07-13T01:53:30;100929.03;;;20.17;65.50
21706;BME280;11014;53.076;18.208;2023-07-13T01:55:59;100921.41;;;20.19;65.56
21706;BME280;11014;53.076;18.208;2023-07-13T01:58:27;100923.59;;;20.17;65.63
21706;BME280;11014;53.076;18.208;2023-07-13T02:00:56;100923.38;;;20.13;65.47
21706;BME280;11014;53.076;18.208;2023-07-13T02:03:28;100925.56;;;20.11;65.79
21706;BME280;11014;53.076;18.208;2023-07-13T02:06:00;100925.31;;;20.07;65.86
21706;BME280;11014;53.076;18.208;2023-07-13T02:08:29;100918.75;;;20.08;65.62
21706;BME280;11014;53.076;18.208;2023-07-13T02:10:57;100919.31;;;20.10;65.63
21706;BME280;11014;53.076;18.208;2023-07-13T02:13:26;100922.25;;;20.14;65.68
21706;BME280;11014;53.076;18.208;2023-07-13T02:15:56;100916.75;;;20.19;65.78
21706;BME280;11014;53.076;18.208;2023-07-13T02:18:24;100914.28;;;20.23;65.64
21706;BME280;11014;53.076;18.208;2023-07-13T02:20:54;100912.63;;;20.27;65.37
21706;BME280;11014;53.076;18.208;2023-07-13T02:23:22;100907.94;;;20.32;65.27
21706;BME280;11014;53.076;18.208;2023-07-13T02:25:54;100905.44;;;20.36;65.21
21706;BME280;11014;53.076;18.208;2023-07-13T02:28:23;100899.97;;;20.36;64.99
21706;BME280;11014;53.076;18.208;2023-07-13T02:30:52;100897.56;;;20.34;65.28
21706;BME280;11014;53.076;18.208;2023-07-13T02:33:22;100898.44;;;20.30;65.09
21706;BME280;11014;53.076;18.208;2023-07-13T02:35:50;100889.19;;;20.26;65.18
21706;BME280;11014;53.076;18.208;2023-07-13T02:38:20;100890.81;;;20.27;65.46
21706;BME280;11014;53.076;18.208;2023-07-13T02:40:49;100894.63;;;20.26;65.67
21706;BME280;11014;53.076;18.208;2023-07-13T02:43:20;100890.28;;;20.20;66.04
21706;BME280;11014;53.076;18.208;2023-07-13T02:45:48;100891.69;;;20.17;66.05
21706;BME280;11014;53.076;18.208;2023-07-13T02:48:17;100893.06;;;20.15;65.83
21706;BME280;11014;53.076;18.208;2023-07-13T02:50:49;100892.81;;;20.11;66.15
21706;BME280;11014;53.076;18.208;2023-07-13T02:53:17;100901.88;;;20.06;66.21
21706;BME280;11014;53.076;18.208;2023-07-13T02:55:46;100893.19;;;20.04;66.53
21706;BME280;11014;53.076;18.208;2023-07-13T02:58:15;100895.09;;;20.04;66.36
21706;BME280;11014;53.076;18.208;2023-07-13T03:00:47;100888.81;;;20.03;66.29
21706;BME280;11014;53.076;18.208;2023-07-13T03:03:15;100890.16;;;20.06;66.33
21706;BME280;11014;53.076;18.208;2023-07-13T03:05:45;100879.53;;;20.04;66.30
21706;BME280;11014;53.076;18.208;2023-07-13T03:08:22;100880.06;;;20.06;66.04
21706;BME280;11014;53.076;18.208;2023-07-13T03:11:02;100883.03;;;20.10;65.89
21706;BME280;11014;53.076;18.208;2023-07-13T03:13:42;100890.66;;;20.13;65.96
21706;BME280;11014;53.076;18.208;2023-07-13T03:16:33;100890.69;;;20.08;65.92
21706;BME280;11014;53.076;18.208;2023-07-13T03:19:08;100894.78;;;20.05;65.79
21706;BME280;11014;53.076;18.208;2023-07-13T03:21:51;100896.47;;;20.01;66.36
21706;BME280;11014;53.076;18.208;2023-07-13T03:24:20;100904.69;;;19.96;66.57
21706;BME280;11014;53.076;18.208;2023-07-13T03:27:03;100907.94;;;19.98;66.17
21706;BME280;11014;53.076;18.208;2023-07-13T03:29:51;100902.19;;;20.00;66.25
21706;BME280;11014;53.076;18.208;2023-07-13T03:32:20;100905.16;;;20.03;66.22
21706;BME280;11014;53.076;18.208;2023-07-13T03:34:49;100903.22;;;20.09;65.98
21706;BME280;11014;53.076;18.208;2023-07-13T03:37:18;100913.22;;;20.19;65.89
21706;BME280;11014;53.076;18.208;2023-07-13T03:39:46;100912.63;;;20.27;65.55
21706;BME280;11014;53.076;18.208;2023-07-13T03:42:17;100922.94;;;20.35;65.64
21706;BME280;11014;53.076;18.208;2023-07-13T03:44:49;100915.78;;;20.39;65.38
21706;BME280;11014;53.076;18.208;2023-07-13T03:47:21;100909.75;;;20.42;65.53
21706;BME280;11014;53.076;18.208;2023-07-13T03:49:50;100908.66;;;20.43;65.63
21706;BME280;11014;53.076;18.208;2023-07-13T03:52:21;100915.44;;;20.45;65.34
21706;BME280;11014;53.076;18.208;2023-07-13T03:54:52;100920.03;;;20.50;65.25
21706;BME280;11014;53.076;18.208;2023-07-13T03:57:22;100927.13;;;20.51;65.64
21706;BME280;11014;53.076;18.208;2023-07-13T03:59:53;100937.53;;;20.49;65.85
21706;BME280;11014;53.076;18.208;2023-07-13T04:02:21;100934.25;;;20.47;66.22
21706;BME280;11014;53.076;18.208;2023-07-13T04:04:50;100936.41;;;20.50;66.62
21706;BME280;11014;53.076;18.208;2023-07-13T04:07:25;100942.38;;;20.52;66.66
21706;BME280;11014;53.076;18.208;2023-07-13T04:09:54;100948.91;;;20.56;66.20
21706;BME280;11014;53.076;18.208;2023-07-13T04:12:24;100946.34;;;20.64;66.26
21706;BME280;11014;53.076;18.208;2023-07-13T04:14:54;100952.00;;;20.73;66.32
21706;BME280;11014;53.076;18.208;2023-07-13T04:17:23;100958.78;;;20.76;66.18
21706;BME280;11014;53.076;18.208;2023-07-13T04:19:51;100958.22;;;20.79;66.07
21706;BME280;11014;53.076;18.208;2023-07-13T04:22:20;100959.03;;;20.79;66.13
21706;BME280;11014;53.076;18.208;2023-07-13T04:24:48;100950.56;;;20.81;65.98
21706;BME280;11014;53.076;18.208;2023-07-13T04:27:17;100940.97;;;20.83;65.67
21706;BME280;11014;53.076;18.208;2023-07-13T04:29:46;100944.19;;;20.85;65.91
21706;BME280;11014;53.076;18.208;2023-07-13T04:32:14;100934.69;;;20.83;66.04
21706;BME280;11014;53.076;18.208;2023-07-13T04:34:43;100936.00;;;20.85;65.94
21706;BME280;11014;53.076;18.208;2023-07-13T04:37:12;100944.19;;;20.85;66.02
21706;BME280;11014;53.076;18.208;2023-07-13T04:39:41;100946.34;;;20.88;65.95
21706;BME280;11014;53.076;18.208;2023-07-13T04:42:10;100948.00;;;20.89;66.04
21706;BME280;11014;53.076;18.208;2023-07-13T04:44:38;100939.22;;;20.92;66.14
21706;BME280;11014;53.076;18.208;2023-07-13T04:47:07;100945.13;;;20.99;66.26
21706;BME280;11014;53.076;18.208;2023-07-13T04:49:35;100962.00;;;21.06;66.37
21706;BME280;11014;53.076;18.208;2023-07-13T04:52:06;100963.56;;;21.12;66.72
21706;BME280;11014;53.076;18.208;2023-07-13T04:54:35;100978.81;;;21.18;67.97
21706;BME280;11014;53.076;18.208;2023-07-13T04:57:05;100988.06;;;21.22;68.40
21706;BME280;11014;53.076;18.208;2023-07-13T04:59:34;100991.22;;;21.30;67.88
21706;BME280;11014;53.076;18.208;2023-07-13T05:02:03;100990.59;;;21.38;68.27
21706;BME280;11014;53.076;18.208;2023-07-13T05:04:31;100999.25;;;21.45;68.58
21706;BME280;11014;53.076;18.208;2023-07-13T05:07:03;101003.53;;;21.51;68.22
21706;BME280;11014;53.076;18.208;2023-07-13T05:09:33;100998.53;;;21.58;67.79
21706;BME280;11014;53.076;18.208;2023-07-13T05:12:03;101007.66;;;21.67;68.32
21706;BME280;11014;53.076;18.208;2023-07-13T05:14:31;100992.75;;;21.78;67.84
21706;BME280;11014;53.076;18.208;2023-07-13T05:17:01;101003.00;;;21.91;67.69
21706;BME280;11014;53.076;18.208;2023-07-13T05:19:29;101004.44;;;22.02;67.60
21706;BME280;11014;53.076;18.208;2023-07-13T05:21:59;101003.72;;;22.15;67.33
21706;BME280;11014;53.076;18.208;2023-07-13T05:24:28;101006.78;;;22.27;66.91
21706;BME280;11014;53.076;18.208;2023-07-13T05:26:56;101001.75;;;22.34;67.27
21706;BME280;11014;53.076;18.208;2023-07-13T05:29:25;101009.28;;;22.42;67.03
21706;BME280;11014;53.076;18.208;2023-07-13T05:31:55;101002.63;;;22.49;67.75
21706;BME280;11014;53.076;18.208;2023-07-13T05:34:23;101012.06;;;22.56;67.48
21706;BME280;11014;53.076;18.208;2023-07-13T05:36:52;101013.81;;;22.66;67.47
21706;BME280;11014;53.076;18.208;2023-07-13T05:39:20;101017.41;;;22.80;67.33
21706;BME280;11014;53.076;18.208;2023-07-13T05:41:50;101028.38;;;22.93;67.37
21706;BME280;11014;53.076;18.208;2023-07-13T05:44:19;101023.94;;;23.11;66.98
21706;BME280;11014;53.076;18.208;2023-07-13T05:46:48;101029.09;;;23.26;67.10
21706;BME280;11014;53.076;18.208;2023-07-13T05:49:16;101031.56;;;23.41;67.02
21706;BME280;11014;53.076;18.208;2023-07-13T05:51:45;101023.63;;;23.53;67.04
21706;BME280;11014;53.076;18.208;2023-07-13T05:54:13;101021.19;;;23.66;66.62
21706;BME280;11014;53.076;18.208;2023-07-13T05:56:42;101020.13;;;23.75;66.60
21706;BME280;11014;53.076;18.208;2023-07-13T05:59:11;101019.09;;;23.85;66.21
21706;BME280;11014;53.076;18.208;2023-07-13T06:01:40;101021.13;;;23.93;66.25
21706;BME280;11014;53.076;18.208;2023-07-13T06:04:09;101020.88;;;24.03;66.23
21706;BME280;11014;53.076;18.208;2023-07-13T06:06:39;101021.25;;;24.10;66.13
21706;BME280;11014;53.076;18.208;2023-07-13T06:09:07;101011.19;;;24.19;65.78
21706;BME280;11014;53.076;18.208;2023-07-13T06:11:36;101017.06;;;24.26;65.00
21706;BME280;11014;53.076;18.208;2023-07-13T06:14:05;101018.22;;;24.34;65.06
21706;BME280;11014;53.076;18.208;2023-07-13T06:16:34;101015.22;;;24.44;64.81
21706;BME280;11014;53.076;18.208;2023-07-13T06:19:02;101011.91;;;24.55;64.72
21706;BME280;11014;53.076;18.208;2023-07-13T06:21:37;101008.41;;;24.63;64.33
21706;BME280;11014;53.076;18.208;2023-07-13T06:24:05;101007.16;;;24.69;63.84
21706;BME280;11014;53.076;18.208;2023-07-13T06:26:34;101007.50;;;24.76;63.79
21706;BME280;11014;53.076;18.208;2023-07-13T06:29:02;101006.28;;;24.83;63.17
21706;BME280;11014;53.076;18.208;2023-07-13T06:31:31;101004.69;;;24.90;62.25
21706;BME280;11014;53.076;18.208;2023-07-13T06:34:00;101008.44;;;24.94;61.14
21706;BME280;11014;53.076;18.208;2023-07-13T06:36:29;101010.25;;;25.07;60.51
21706;BME280;11014;53.076;18.208;2023-07-13T06:38:57;101016.13;;;25.23;60.93
21706;BME280;11014;53.076;18.208;2023-07-13T06:41:26;101020.22;;;25.43;61.22
21706;BME280;11014;53.076;18.208;2023-07-13T06:43:54;101012.34;;;25.58;60.92
21706;BME280;11014;53.076;18.208;2023-07-13T06:46:24;101020.47;;;25.72;60.48
21706;BME280;11014;53.076;18.208;2023-07-13T06:48:52;101020.47;;;25.80;60.04
21706;BME280;11014;53.076;18.208;2023-07-13T06:51:22;101023.25;;;25.89;59.93
21706;BME280;11014;53.076;18.208;2023-07-13T06:53:50;101027.13;;;25.97;59.52
21706;BME280;11014;53.076;18.208;2023-07-13T06:56:19;101033.28;;;26.02;59.58
21706;BME280;11014;53.076;18.208;2023-07-13T06:58:47;101039.91;;;26.10;59.30
21706;BME280;11014;53.076;18.208;2023-07-13T07:01:16;101052.91;;;26.18;59.24
21706;BME280;11014;53.076;18.208;2023-07-13T07:03:44;101043.69;;;26.31;58.38
21706;BME280;11014;53.076;18.208;2023-07-13T07:06:18;101047.88;;;26.45;58.45
21706;BME280;11014;53.076;18.208;2023-07-13T07:08:47;101033.44;;;26.57;58.74
21706;BME280;11014;53.076;18.208;2023-07-13T07:11:21;101047.34;;;26.69;57.89
21706;BME280;11014;53.076;18.208;2023-07-13T07:13:51;101043.78;;;26.77;57.94
21706;BME280;11014;53.076;18.208;2023-07-13T07:16:20;101045.06;;;26.88;57.29
21706;BME280;11014;53.076;18.208;2023-07-13T07:18:49;101051.81;;;26.99;56.69
21706;BME280;11014;53.076;18.208;2023-07-13T07:21:18;101042.72;;;27.08;55.80
21706;BME280;11014;53.076;18.208;2023-07-13T07:23:48;101045.41;;;27.16;56.02
21706;BME280;11014;53.076;18.208;2023-07-13T07:26:17;101044.91;;;27.23;55.74
21706;BME280;11014;53.076;18.208;2023-07-13T07:28:46;101053.66;;;27.25;55.71
21706;BME280;11014;53.076;18.208;2023-07-13T07:31:19;101053.00;;;27.28;55.01
21706;BME280;11014;53.076;18.208;2023-07-13T07:33:51;101057.66;;;27.36;55.61
21706;BME280;11014;53.076;18.208;2023-07-13T07:36:20;101051.63;;;27.51;55.34
21706;BME280;11014;53.076;18.208;2023-07-13T07:39:08;101046.94;;;27.72;54.67
21706;BME280;11014;53.076;18.208;2023-07-13T07:41:37;101045.06;;;27.85;54.57
21706;BME280;11014;53.076;18.208;2023-07-13T07:44:27;101040.88;;;27.99;53.92
21706;BME280;11014;53.076;18.208;2023-07-13T07:46:56;101041.56;;;27.96;51.75
21706;BME280;11014;53.076;18.208;2023-07-13T07:49:25;101033.06;;;28.01;52.41
21706;BME280;11014;53.076;18.208;2023-07-13T07:51:54;101043.28;;;28.09;52.47
21706;BME280;11014;53.076;18.208;2023-07-13T07:54:22;101046.16;;;28.13;52.34
21706;BME280;11014;53.076;18.208;2023-07-13T07:57:11;101057.56;;;28.11;50.46
21706;BME280;11014;53.076;18.208;2023-07-13T07:59:42;101050.22;;;28.15;50.74
21706;BME280;11014;53.076;18.208;2023-07-13T08:02:14;101057.63;;;28.23;50.65
21706;BME280;11014;53.076;18.208;2023-07-13T08:05:02;101062.47;;;28.27;49.47
21706;BME280;11014;53.076;18.208;2023-07-13T08:07:34;101060.06;;;28.25;49.94
21706;BME280;11014;53.076;18.208;2023-07-13T08:10:03;101069.78;;;28.22;49.30
21706;BME280;11014;53.076;18.208;2023-07-13T08:12:35;101070.16;;;28.21;49.82
21706;BME280;11014;53.076;18.208;2023-07-13T08:15:09;101063.13;;;28.23;50.01
21706;BME280;11014;53.076;18.208;2023-07-13T08:17:38;101069.13;;;28.26;49.32
21706;BME280;11014;53.076;18.208;2023-07-13T08:20:08;101077.41;;;28.26;49.20
21706;BME280;11014;53.076;18.208;2023-07-13T08:22:38;101072.56;;;28.22;48.83
21706;BME280;11014;53.076;18.208;2023-07-13T08:25:06;101068.94;;;28.10;46.92
21706;BME280;11014;53.076;18.208;2023-07-13T08:27:35;101065.38;;;28.01;47.73
21706;BME280;11014;53.076;18.208;2023-07-13T08:30:03;101057.47;;;27.99;48.45
21706;BME280;11014;53.076;18.208;2023-07-13T08:32:36;101061.34;;;27.98;48.68
21706;BME280;11014;53.076;18.208;2023-07-13T08:35:05;101059.59;;;28.02;49.29
21706;BME280;11014;53.076;18.208;2023-07-13T08:37:33;101052.50;;;28.13;49.06
21706;BME280;11014;53.076;18.208;2023-07-13T08:40:02;101053.56;;;28.21;48.78
21706;BME280;11014;53.076;18.208;2023-07-13T08:42:32;101057.91;;;28.31;47.06
21706;BME280;11014;53.076;18.208;2023-07-13T08:47:31;101048.41;;;28.52;47.76
21706;BME280;11014;53.076;18.208;2023-07-13T08:50:02;101042.63;;;28.66;45.64
21706;BME280;11014;53.076;18.208;2023-07-13T08:52:35;101042.41;;;28.71;45.05
21706;BME280;11014;53.076;18.208;2023-07-13T08:55:09;101049.44;;;28.80;45.15
21706;BME280;11014;53.076;18.208;2023-07-13T08:57:41;101047.75;;;29.00;45.76
21706;BME280;11014;53.076;18.208;2023-07-13T09:00:10;101047.91;;;29.28;46.07
21706;BME280;11014;53.076;18.208;2023-07-13T09:02:50;101048.84;;;29.56;45.74
21706;BME280;11014;53.076;18.208;2023-07-13T09:05:29;101046.34;;;29.79;45.38
21706;BME280;11014;53.076;18.208;2023-07-13T09:08:12;101053.75;;;29.87;44.74
21706;BME280;11014;53.076;18.208;2023-07-13T09:10:52;101054.06;;;29.98;44.52
21706;BME280;11014;53.076;18.208;2023-07-13T09:13:39;101049.56;;;30.05;43.98
21706;BME280;11014;53.076;18.208;2023-07-13T09:16:11;101044.47;;;30.07;44.06
21706;BME280;11014;53.076;18.208;2023-07-13T09:18:42;101039.59;;;30.16;42.82
21706;BME280;11014;53.076;18.208;2023-07-13T09:21:17;101031.47;;;30.23;43.48
21706;BME280;11014;53.076;18.208;2023-07-13T09:23:47;101027.97;;;30.38;43.14
21706;BME280;11014;53.076;18.208;2023-07-13T09:26:16;101030.25;;;30.48;43.42
21706;BME280;11014;53.076;18.208;2023-07-13T09:28:48;101023.72;;;30.57;42.63
21706;BME280;11014;53.076;18.208;2023-07-13T09:33:51;101017.97;;;30.49;42.97
21706;BME280;11014;53.076;18.208;2023-07-13T09:36:22;101023.72;;;30.41;42.44
21706;BME280;11014;53.076;18.208;2023-07-13T09:38:59;101032.63;;;30.22;42.65
21706;BME280;11014;53.076;18.208;2023-07-13T09:46:37;101026.34;;;29.33;45.91
21706;BME280;11014;53.076;18.208;2023-07-13T09:49:08;101038.53;;;29.08;46.60
21706;BME280;11014;53.076;18.208;2023-07-13T09:51:38;101039.41;;;28.88;47.62
21706;BME280;11014;53.076;18.208;2023-07-13T09:54:20;101038.03;;;28.82;47.55
21706;BME280;11014;53.076;18.208;2023-07-13T09:56:53;101040.00;;;28.82;48.05
21706;BME280;11014;53.076;18.208;2023-07-13T09:59:23;101052.03;;;28.65;47.67
21706;BME280;11014;53.076;18.208;2023-07-13T10:01:53;101048.16;;;28.66;48.13
21706;BME280;11014;53.076;18.208;2023-07-13T10:04:41;101050.59;;;28.59;48.55
21706;BME280;11014;53.076;18.208;2023-07-13T10:07:12;101046.41;;;28.41;48.33
21706;BME280;11014;53.076;18.208;2023-07-13T10:09:57;101043.47;;;28.25;47.92
21706;BME280;11014;53.076;18.208;2023-07-13T10:12:26;101040.78;;;28.16;48.42
21706;BME280;11014;53.076;18.208;2023-07-13T10:14:59;101053.44;;;28.17;48.67
21706;BME280;11014;53.076;18.208;2023-07-13T10:17:49;101058.28;;;28.20;48.73
21706;BME280;11014;53.076;18.208;2023-07-13T10:20:18;101053.56;;;28.21;49.43
21706;BME280;11014;53.076;18.208;2023-07-13T10:25:20;101049.78;;;28.26;49.65
21706;BME280;11014;53.076;18.208;2023-07-13T10:27:51;101052.63;;;28.38;49.93
21706;BME280;11014;53.076;18.208;2023-07-13T10:30:21;101045.84;;;28.47;49.88
21706;BME280;11014;53.076;18.208;2023-07-13T10:32:52;101047.72;;;28.55;49.80
21706;BME280;11014;53.076;18.208;2023-07-13T10:35:22;101046.72;;;28.60;49.46
21706;BME280;11014;53.076;18.208;2023-07-13T10:40:30;101046.50;;;28.65;50.70
21706;BME280;11014;53.076;18.208;2023-07-13T10:43:04;101043.94;;;28.60;50.25
21706;BME280;11014;53.076;18.208;2023-07-13T10:45:35;101044.91;;;28.64;50.31
21706;BME280;11014;53.076;18.208;2023-07-13T10:48:05;101040.31;;;28.68;50.30
21706;BME280;11014;53.076;18.208;2023-07-13T10:50:41;101040.78;;;28.70;50.53
21706;BME280;11014;53.076;18.208;2023-07-13T10:53:21;101035.00;;;28.75;50.63
21706;BME280;11014;53.076;18.208;2023-07-13T10:58:23;101045.66;;;28.85;50.87
21706;BME280;11014;53.076;18.208;2023-07-13T11:00:53;101036.63;;;28.76;50.82
21706;BME280;11014;53.076;18.208;2023-07-13T11:03:24;101041.91;;;28.69;50.67
21706;BME280;11014;53.076;18.208;2023-07-13T11:06:40;101047.16;;;28.62;50.20
21706;BME280;11014;53.076;18.208;2023-07-13T11:22:03;101043.19;;;29.28;48.13
21706;BME280;11014;53.076;18.208;2023-07-13T11:24:49;101042.38;;;29.52;47.96
21706;BME280;11014;53.076;18.208;2023-07-13T11:27:33;101039.97;;;29.51;43.85
21706;BME280;11014;53.076;18.208;2023-07-13T11:30:21;101049.50;;;29.65;44.04
21706;BME280;11014;53.076;18.208;2023-07-13T11:35:57;101045.91;;;29.65;44.51
21706;BME280;11014;53.076;18.208;2023-07-13T11:38:36;101052.16;;;29.62;43.89
21706;BME280;11014;53.076;18.208;2023-07-13T11:43:41;101039.50;;;29.36;43.71
21706;BME280;11014;53.076;18.208;2023-07-13T11:46:28;101037.41;;;29.33;44.71
21706;BME280;11014;53.076;18.208;2023-07-13T11:48:57;101033.72;;;29.29;45.60
21706;BME280;11014;53.076;18.208;2023-07-13T11:51:26;101040.66;;;29.23;45.37
21706;BME280;11014;53.076;18.208;2023-07-13T11:53:56;101039.03;;;29.22;45.45
21706;BME280;11014;53.076;18.208;2023-07-13T11:56:28;101042.69;;;29.14;45.03
21706;BME280;11014;53.076;18.208;2023-07-13T11:58:57;101041.75;;;29.10;45.33
21706;BME280;11014;53.076;18.208;2023-07-13T12:01:29;101045.47;;;29.14;45.82
21706;BME280;11014;53.076;18.208;2023-07-13T12:04:03;101037.75;;;29.20;46.27
21706;BME280;11014;53.076;18.208;2023-07-13T12:06:35;101036.97;;;29.31;45.61
21706;BME280;11014;53.076;18.208;2023-07-13T12:09:11;101028.75;;;29.47;45.90
21706;BME280;11014;53.076;18.208;2023-07-13T12:11:43;101031.59;;;29.75;45.64
21706;BME280;11014;53.076;18.208;2023-07-13T12:14:14;101040.00;;;30.03;44.63
21706;BME280;11014;53.076;18.208;2023-07-13T12:16:44;101025.91;;;30.35;44.34
21706;BME280;11014;53.076;18.208;2023-07-13T12:19:17;101025.97;;;30.67;42.88
21706;BME280;11014;53.076;18.208;2023-07-13T12:21:47;101031.59;;;30.98;42.14
21706;BME280;11014;53.076;18.208;2023-07-13T12:24:16;101028.91;;;31.17;41.18
21706;BME280;11014;53.076;18.208;2023-07-13T12:26:50;101032.53;;;31.37;40.49
21706;BME280;11014;53.076;18.208;2023-07-13T12:29:21;101019.94;;;31.08;39.03
21706;BME280;11014;53.076;18.208;2023-07-13T12:31:49;101009.34;;;31.29;38.85
21706;BME280;11014;53.076;18.208;2023-07-13T12:34:23;101005.53;;;31.68;38.31
21706;BME280;11014;53.076;18.208;2023-07-13T12:39:22;101008.03;;;32.92;36.06
21706;BME280;11014;53.076;18.208;2023-07-13T12:41:53;101006.56;;;33.51;34.08
21706;BME280;11014;53.076;18.208;2023-07-13T12:44:31;101009.97;;;34.23;34.80
21706;BME280;11014;53.076;18.208;2023-07-13T12:47:04;101015.56;;;35.03;33.85
21706;BME280;11014;53.076;18.208;2023-07-13T12:49:34;101012.72;;;35.47;30.11
21706;BME280;11014;53.076;18.208;2023-07-13T12:52:14;100992.34;;;36.12;31.53
21706;BME280;11014;53.076;18.208;2023-07-13T12:54:53;100992.38;;;36.22;28.88
21706;BME280;11014;53.076;18.208;2023-07-13T12:57:37;100990.44;;;35.58;30.14
21706;BME280;11014;53.076;18.208;2023-07-13T13:00:27;100991.34;;;34.67;30.51
21706;BME280;11014;53.076;18.208;2023-07-13T13:02:56;100986.59;;;34.05;31.06
21706;BME280;11014;53.076;18.208;2023-07-13T13:05:37;100986.66;;;33.49;32.59
21706;BME280;11014;53.076;18.208;2023-07-13T13:08:07;100991.50;;;33.03;33.15
21706;BME280;11014;53.076;18.208;2023-07-13T13:10:37;101010.63;;;32.40;33.90
21706;BME280;11014;53.076;18.208;2023-07-13T13:13:06;101039.22;;;31.67;35.34
21706;BME280;11014;53.076;18.208;2023-07-13T13:15:35;101047.44;;;30.70;37.52
21706;BME280;11014;53.076;18.208;2023-07-13T13:18:10;101069.56;;;30.26;45.24
21706;BME280;11014;53.076;18.208;2023-07-13T13:20:43;101054.94;;;29.37;46.89
21706;BME280;11014;53.076;18.208;2023-07-13T13:23:15;101044.06;;;29.08;46.89
21706;BME280;11014;53.076;18.208;2023-07-13T13:25:46;101046.13;;;28.99;46.33
21706;BME280;11014;53.076;18.208;2023-07-13T13:28:17;101040.00;;;28.82;47.11
21706;BME280;11014;53.076;18.208;2023-07-13T13:30:47;101033.56;;;28.57;48.30
21706;BME280;11014;53.076;18.208;2023-07-13T13:33:16;101030.53;;;28.50;49.16
21706;BME280;11014;53.076;18.208;2023-07-13T13:35:45;101024.53;;;28.48;48.83
21706;BME280;11014;53.076;18.208;2023-07-13T13:38:20;101022.84;;;28.55;49.34
21706;BME280;11014;53.076;18.208;2023-07-13T13:40:51;101020.19;;;28.59;49.18
21706;BME280;11014;53.076;18.208;2023-07-13T13:43:25;101021.19;;;28.63;48.92